createdAt,value
2023-05-18T00:03:02.455Z,3.87
2023-05-18T00:08:06.414Z,4.10
2023-05-18T00:13:10.844Z,4.63
2023-05-18T00:18:14.029Z,3.90
2023-05-18T00:23:17.229Z,4.00
2023-05-18T00:28:21.720Z,4.17
2023-05-18T00:33:25.341Z,4.30
2023-05-18T00:38:28.526Z,4.10
2023-05-18T00:43:33.089Z,4.27
2023-05-18T00:48:36.287Z,4.00
2023-05-18T00:53:42.078Z,3.97
2023-05-18T00:58:48.362Z,4.70
2023-05-18T01:03:56.762Z,4.50
2023-05-18T01:09:00.704Z,4.10
2023-05-18T01:14:11.478Z,3.63
2023-05-18T01:19:37.636Z,3.97
2023-05-18T01:24:44.115Z,4.40
2023-05-18T01:29:50.581Z,4.50
2023-05-18T01:34:53.716Z,4.33
2023-05-18T01:39:56.868Z,4.50
2023-05-18T01:45:07.896Z,4.40
2023-05-18T01:50:16.259Z,4.10
2023-05-18T01:55:21.570Z,4.60
2023-05-18T02:00:27.502Z,4.37
2023-05-18T02:05:31.117Z,4.47
2023-05-18T02:10:34.607Z,4.00
2023-05-18T02:15:39.174Z,4.60
2023-05-18T02:20:42.905Z,4.83
2023-05-18T02:25:46.768Z,4.53
2023-05-18T02:30:51.404Z,4.60
2023-05-18T02:35:54.847Z,4.50
2023-05-18T02:40:58.313Z,4.17
2023-05-18T02:46:03.372Z,4.23
2023-05-18T02:51:06.995Z,5.17
2023-05-18T02:56:10.127Z,4.73
2023-05-18T03:01:15.172Z,4.50
2023-05-18T03:06:23.324Z,5.03
2023-05-18T03:11:27.580Z,4.77
2023-05-18T03:16:32.099Z,4.70
2023-05-18T03:21:36.255Z,4.73
2023-05-18T03:26:41.924Z,4.73
2023-05-18T03:31:47.189Z,4.87
2023-05-18T03:36:52.484Z,4.90
2023-05-18T03:41:56.316Z,5.13
2023-05-18T03:47:01.028Z,4.90
2023-05-18T03:52:05.526Z,5.30
2023-05-18T03:57:08.700Z,5.30
2023-05-18T04:02:14.094Z,4.87
2023-05-18T04:07:17.626Z,4.87
2023-05-18T04:12:21.333Z,4.93
2023-05-18T04:17:26.347Z,5.20
2023-05-18T04:22:31.570Z,4.63
2023-05-18T04:27:34.860Z,4.90
2023-05-18T04:32:42.586Z,4.93
2023-05-18T04:37:46.260Z,5.13
2023-05-18T04:42:50.084Z,4.90
2023-05-18T04:47:55.010Z,5.40
2023-05-18T04:53:02.612Z,4.73
2023-05-18T04:58:06.140Z,5.03
2023-05-18T05:03:11.068Z,4.93
2023-05-18T05:08:14.663Z,5.00
2023-05-18T05:13:17.920Z,4.93
2023-05-18T05:18:22.592Z,5.03
2023-05-18T05:23:26.347Z,5.00
2023-05-18T05:28:29.726Z,5.07
2023-05-18T05:33:34.302Z,4.93
2023-05-18T05:38:37.562Z,5.33
2023-05-18T05:43:40.987Z,5.17
2023-05-18T05:48:45.910Z,5.43
2023-05-18T05:53:49.916Z,5.03
2023-05-18T05:58:53.013Z,5.00
2023-05-18T06:03:57.992Z,4.97
2023-05-18T06:09:02.147Z,4.77
2023-05-18T06:14:05.563Z,4.37
2023-05-18T06:19:10.211Z,4.57
2023-05-18T06:24:13.812Z,4.47
2023-05-18T06:29:17.449Z,4.40
2023-05-18T06:34:22.435Z,3.90
2023-05-18T06:39:25.720Z,4.30
2023-05-18T06:44:29.350Z,4.10
2023-05-18T06:49:33.843Z,4.00
2023-05-18T06:54:37.470Z,3.60
2023-05-18T06:59:40.726Z,3.80
2023-05-18T07:04:45.773Z,3.43
2023-05-18T07:09:49.795Z,3.70
2023-05-18T07:14:53.331Z,3.40
2023-05-18T07:19:57.859Z,3.53
2023-05-18T07:25:01.339Z,3.60
2023-05-18T07:30:04.842Z,3.10
2023-05-18T07:35:10.319Z,3.47
2023-05-18T07:40:14.023Z,3.03
2023-05-18T07:45:17.647Z,3.37
2023-05-18T07:50:22.061Z,3.00
2023-05-18T07:55:25.137Z,2.63
2023-05-18T08:00:28.483Z,3.07
2023-05-18T08:05:33.201Z,2.73
2023-05-18T08:10:36.865Z,3.00
2023-05-18T08:15:42.440Z,2.50
2023-05-18T08:20:47.356Z,2.73
2023-05-18T08:25:50.814Z,2.90
2023-05-18T08:30:54.003Z,3.00
2023-05-18T08:35:59.097Z,2.83
2023-05-18T08:41:16.278Z,2.83
2023-05-18T08:46:22.810Z,3.00
2023-05-18T08:51:30.288Z,2.45
2023-05-18T08:56:34.597Z,2.58
2023-05-18T09:01:38.317Z,2.78
2023-05-18T09:06:43.235Z,2.88
2023-05-18T09:11:48.135Z,2.60
2023-05-18T09:16:51.214Z,2.75
2023-05-18T09:21:56.071Z,2.60
2023-05-18T09:26:59.252Z,2.65
2023-05-18T09:32:09.875Z,2.70
2023-05-18T09:37:17.478Z,2.88
2023-05-18T09:42:22.878Z,2.60
2023-05-18T09:47:28.963Z,2.53
2023-05-18T09:52:41.943Z,2.83
2023-05-18T09:57:47.150Z,2.47
2023-05-18T10:02:52.495Z,2.63
2023-05-18T10:07:58.431Z,2.60
2023-05-18T10:13:02.653Z,2.63
2023-05-18T10:18:08.756Z,2.80
2023-05-18T10:23:13.673Z,3.15
2023-05-18T10:28:24.371Z,2.38
2023-05-18T10:33:30.196Z,2.83
2023-05-18T10:38:38.711Z,2.83
2023-05-18T10:43:43.085Z,2.73
2023-05-18T10:48:51.328Z,2.90
2023-05-18T10:54:00.806Z,2.80
2023-05-18T10:59:05.024Z,3.13
2023-05-18T11:04:08.598Z,3.20
2023-05-18T11:09:24.669Z,2.92
2023-05-18T11:14:29.052Z,2.78
2023-05-18T11:19:32.271Z,2.63
2023-05-18T11:24:37.721Z,2.90
2023-05-18T11:29:44.820Z,2.85
2023-05-18T11:34:52.657Z,2.70
2023-05-18T11:40:00.965Z,2.35
2023-05-18T11:45:10.763Z,2.92
2023-05-18T11:50:14.417Z,2.85
2023-05-18T11:55:21.199Z,2.63
2023-05-18T12:00:25.236Z,2.50
2023-05-18T12:05:31.807Z,2.55
2023-05-18T12:10:37.216Z,2.40
2023-05-18T12:15:41.309Z,2.60
2023-05-18T12:20:46.021Z,2.65
2023-05-18T12:25:51.164Z,2.95
2023-05-18T12:30:57.539Z,2.35
2023-05-18T12:36:00.600Z,2.58
2023-05-18T12:41:06.497Z,3.08
2023-05-18T12:46:09.607Z,2.92
2023-05-18T12:51:19.232Z,2.67
2023-05-18T12:56:25.626Z,2.75
2023-05-18T13:01:28.897Z,2.50
2023-05-18T13:06:32.887Z,2.65
2023-05-18T13:11:37.260Z,2.22
2023-05-18T13:16:46.593Z,3.03
2023-05-18T13:21:57.088Z,2.42
2023-05-18T13:27:01.701Z,2.75
2023-05-18T13:32:05.532Z,2.70
2023-05-18T13:37:10.804Z,2.53
2023-05-18T13:42:21.338Z,3.33
2023-05-18T13:47:24.676Z,2.60
2023-05-18T13:52:28.068Z,2.80
2023-05-18T13:57:32.920Z,2.55
2023-05-18T14:02:36.026Z,2.60
2023-05-18T14:07:41.332Z,2.65
2023-05-18T14:12:45.724Z,3.03
2023-05-18T14:17:48.834Z,2.53
2023-05-18T14:22:51.926Z,2.40
2023-05-18T14:27:56.345Z,2.70
2023-05-18T14:33:01.309Z,2.63
2023-05-18T14:38:04.466Z,2.53
2023-05-18T14:43:08.855Z,2.88
2023-05-18T14:48:12.242Z,2.85
2023-05-18T14:53:15.360Z,2.60
2023-05-18T14:58:20.135Z,2.63
2023-05-18T15:03:25.020Z,2.67
2023-05-18T15:08:29.779Z,2.60
2023-05-18T15:13:34.341Z,2.70
2023-05-18T15:18:37.646Z,2.90
2023-05-18T15:23:40.684Z,2.70
2023-05-18T15:28:47.073Z,2.77
2023-05-18T15:33:50.236Z,2.73
2023-05-18T15:38:53.682Z,2.97
2023-05-18T15:43:58.092Z,2.77
2023-05-18T15:49:01.775Z,2.90
2023-05-18T15:54:05.294Z,2.60
2023-05-18T15:59:09.962Z,2.93
2023-05-18T16:04:13.012Z,3.03
2023-05-18T16:09:16.058Z,2.87
2023-05-18T16:14:21.034Z,2.93
2023-05-18T16:19:24.183Z,2.60
2023-05-18T16:24:27.326Z,2.93
2023-05-18T16:29:31.762Z,2.78
2023-05-18T16:34:35.315Z,2.75
2023-05-18T16:39:38.790Z,3.85
2023-05-18T16:44:43.157Z,4.00
2023-05-18T16:49:46.197Z,2.72
2023-05-18T16:54:49.252Z,2.90
2023-05-18T16:59:53.641Z,2.67
2023-05-18T17:04:58.303Z,2.80
2023-05-18T17:10:01.457Z,2.70
2023-05-18T17:15:06.673Z,2.50
2023-05-18T17:20:12.118Z,2.33
2023-05-18T17:25:15.263Z,2.23
2023-05-18T17:30:19.659Z,2.50
2023-05-18T17:35:22.930Z,2.43
2023-05-18T17:40:26.475Z,2.80
2023-05-18T17:45:31.292Z,2.40
2023-05-18T17:50:37.505Z,2.17
2023-05-18T17:55:41.563Z,2.60
2023-05-18T18:00:45.966Z,2.60
2023-05-18T18:05:49.080Z,2.73
2023-05-18T18:49:04.081Z,2.60
2023-05-18T18:54:08.487Z,3.10
2023-05-18T18:59:11.843Z,2.60
2023-05-18T19:04:14.919Z,2.90
2023-05-18T19:09:19.339Z,2.93
2023-05-18T19:14:22.404Z,2.83
2023-05-18T19:19:25.608Z,3.30
2023-05-18T19:24:30.049Z,2.90
2023-05-18T19:29:36.768Z,3.27
2023-05-18T19:34:39.819Z,3.17
2023-05-18T19:39:44.630Z,3.20
2023-05-18T19:44:47.677Z,2.53
2023-05-18T19:49:50.741Z,2.60
2023-05-18T19:54:55.328Z,2.80
2023-05-18T19:59:59.097Z,2.90
2023-05-18T20:05:03.869Z,2.77
2023-05-18T20:10:10.384Z,2.47
2023-05-18T20:15:13.608Z,2.50
2023-05-18T20:20:17.122Z,2.60
2023-05-18T20:25:21.528Z,2.70
2023-05-18T20:30:24.562Z,2.33
2023-05-18T20:35:27.665Z,2.80
2023-05-18T20:40:32.818Z,2.47
2023-05-18T20:45:36.487Z,2.53
2023-05-18T20:50:39.550Z,2.47
2023-05-18T20:55:46.129Z,2.53
2023-05-18T21:00:49.185Z,2.93
2023-05-18T21:05:52.754Z,2.53
2023-05-18T21:10:57.198Z,2.60
2023-05-18T21:16:00.745Z,2.60
2023-05-18T21:21:04.235Z,2.60
2023-05-18T21:26:08.624Z,1.97
2023-05-18T21:31:11.678Z,2.57
2023-05-18T21:36:15.492Z,2.80
2023-05-18T21:41:20.045Z,2.83
2023-05-18T21:46:23.464Z,3.30
2023-05-18T21:51:26.993Z,2.87
2023-05-18T21:56:34.495Z,3.47
2023-05-18T22:01:37.633Z,3.27
2023-05-18T22:06:40.824Z,2.97
2023-05-18T22:11:45.253Z,3.60
2023-05-18T22:16:49.031Z,3.43
2023-05-18T22:21:53.598Z,3.20
2023-05-18T22:26:58.201Z,3.27
2023-05-18T22:32:01.675Z,3.13
2023-05-18T22:37:05.525Z,3.00
2023-05-18T22:42:10.407Z,4.13
2023-05-18T22:47:13.834Z,2.70
2023-05-18T22:52:17.837Z,3.13
2023-05-18T22:57:22.643Z,2.90
2023-05-18T23:02:25.867Z,2.47
2023-05-18T23:07:30.470Z,2.70
2023-05-18T23:12:35.348Z,2.70
2023-05-18T23:17:39.489Z,2.77
2023-05-18T23:22:43.022Z,2.63
2023-05-18T23:27:47.815Z,2.37
2023-05-18T23:32:51.882Z,2.70
2023-05-18T23:37:58.279Z,2.60
2023-05-18T23:43:03.700Z,2.70
2023-05-18T23:48:07.680Z,3.07
2023-05-18T23:53:13.516Z,2.73
2023-05-18T23:58:18.956Z,2.60
